createdAt,value
2023-05-10T00:04:21.219Z,95128.44
2023-05-10T00:09:23.637Z,95127.94
2023-05-10T00:14:25.918Z,95122.56
2023-05-10T00:19:28.240Z,95125.03
2023-05-10T00:24:30.516Z,95119.97
2023-05-10T00:29:32.823Z,95122.16
2023-05-10T00:34:35.609Z,95112.75
2023-05-10T00:39:37.889Z,95115.47
2023-05-10T00:44:40.264Z,95109.28
2023-05-10T00:49:42.643Z,95102.38
2023-05-10T00:54:44.904Z,95107.59
2023-05-10T00:59:47.207Z,95104.41
2023-05-10T01:04:49.499Z,95105.22
2023-05-10T01:09:51.989Z,95103.31
2023-05-10T01:14:54.334Z,95098.09
2023-05-10T01:19:56.670Z,95105.31
2023-05-10T01:24:59.402Z,95096.22
2023-05-10T01:30:14.697Z,95101.59
2023-05-10T01:35:18.314Z,95092.81
2023-05-10T01:40:21.450Z,95100.41
2023-05-10T01:45:24.138Z,95098.81
2023-05-10T01:50:27.753Z,95095.63
2023-05-10T01:55:30.495Z,95101.59
2023-05-10T02:00:33.205Z,95102.38
2023-05-10T02:05:35.656Z,95100.72
2023-05-10T02:10:38.071Z,95094.78
2023-05-10T02:15:40.412Z,95099.19
2023-05-10T02:20:42.680Z,95099.19
2023-05-10T02:25:45.034Z,95095.72
2023-05-10T02:30:47.651Z,95101.59
2023-05-10T02:35:49.954Z,95104.06
2023-05-10T02:40:52.513Z,95096.00
2023-05-10T02:45:55.123Z,95096.09
2023-05-10T02:50:57.434Z,95095.59
2023-05-10T02:55:59.786Z,95102.59
2023-05-10T03:01:02.117Z,95106.34
2023-05-10T03:06:04.600Z,95105.84
2023-05-10T03:11:07.142Z,95104.75
2023-05-10T03:16:09.546Z,95109.06
2023-05-10T03:21:13.348Z,95117.72
2023-05-10T03:26:15.696Z,95111.22
2023-05-10T03:31:17.994Z,95121.72
2023-05-10T03:36:20.356Z,95128.91
2023-05-10T03:41:22.662Z,95122.13
2023-05-10T03:46:24.990Z,95126.84
2023-05-10T03:51:29.076Z,95132.72
2023-05-10T03:56:31.408Z,95133.19
2023-05-10T04:01:33.772Z,95139.69
2023-05-10T04:06:36.250Z,95141.78
2023-05-10T04:11:38.654Z,95140.19
2023-05-10T04:16:41.325Z,95142.28
2023-05-10T04:21:43.726Z,95146.50
2023-05-10T04:26:46.452Z,95151.09
2023-05-10T04:31:49.750Z,95145.41
2023-05-10T04:36:52.080Z,95154.38
2023-05-10T04:41:54.457Z,95155.28
2023-05-10T04:46:56.753Z,95153.97
2023-05-10T04:51:59.046Z,95155.25
2023-05-10T04:57:01.640Z,95154.66
2023-05-10T05:02:04.441Z,95162.75
2023-05-10T05:07:07.212Z,95164.75
2023-05-10T05:12:14.762Z,95174.31
2023-05-10T05:17:17.125Z,95186.38
2023-05-10T05:22:20.395Z,95199.66
2023-05-10T05:27:25.035Z,95204.25
2023-05-10T05:32:27.439Z,95205.75
2023-05-10T05:37:29.934Z,95213.81
2023-05-10T05:42:32.812Z,95222.31
2023-05-10T05:47:35.207Z,95218.59
2023-05-10T05:52:37.584Z,95219.94
2023-05-10T05:57:40.115Z,95224.97
2023-05-10T06:02:42.538Z,95230.41
2023-05-10T06:07:45.273Z,95236.50
2023-05-10T06:12:47.651Z,95243.25
2023-05-10T06:17:50.168Z,95250.41
2023-05-10T06:22:52.544Z,95253.28
2023-05-10T06:27:58.385Z,95259.84
2023-05-10T06:33:00.921Z,95260.56
2023-05-10T06:38:03.363Z,95260.84
2023-05-10T06:43:05.670Z,95262.72
2023-05-10T06:48:09.474Z,95258.34
2023-05-10T06:53:13.054Z,95256.50
2023-05-10T06:58:15.372Z,95256.03
2023-05-10T07:03:18.118Z,95251.41
2023-05-10T07:08:20.537Z,95266.66
2023-05-10T07:13:23.092Z,95256.53
2023-05-10T07:18:25.924Z,95262.50
2023-05-10T07:23:28.606Z,95270.72
2023-05-10T07:28:31.169Z,95263.59
2023-05-10T07:33:33.543Z,95263.06
2023-05-10T07:38:36.142Z,95251.25
2023-05-10T07:43:39.125Z,95240.50
2023-05-10T07:48:41.714Z,95249.84
2023-05-10T07:53:44.317Z,95266.00
2023-05-10T07:58:46.618Z,95261.94
2023-05-10T08:03:49.384Z,95244.06
2023-05-10T08:08:52.424Z,95251.78
2023-05-10T08:13:54.827Z,95244.53
2023-05-10T08:18:57.222Z,95257.19
2023-05-10T08:23:59.759Z,95257.22
2023-05-10T08:29:02.047Z,95247.28
2023-05-10T08:34:04.691Z,95248.97
2023-05-10T08:39:13.518Z,95255.84
2023-05-10T08:44:21.806Z,95262.63
2023-05-10T08:49:24.102Z,95264.75
2023-05-10T08:54:26.473Z,95263.59
2023-05-10T08:59:28.794Z,95259.78
2023-05-10T09:04:31.168Z,95262.16
2023-05-10T09:09:33.544Z,95261.03
2023-05-10T09:14:36.198Z,95251.84
2023-05-10T09:19:38.901Z,95248.91
2023-05-10T09:24:46.490Z,95253.31
2023-05-10T09:29:48.847Z,95250.34
2023-05-10T09:34:51.222Z,95240.84
2023-05-10T09:39:53.553Z,95245.91
2023-05-10T09:44:55.856Z,95242.34
2023-05-10T09:50:04.053Z,95241.06
2023-05-10T09:55:06.699Z,95238.34
2023-05-10T10:00:09.825Z,95237.38
2023-05-10T10:05:12.213Z,95232.50
2023-05-10T10:10:14.564Z,95234.88
2023-05-10T10:15:17.379Z,95221.16
2023-05-10T10:20:19.926Z,95228.25
2023-05-10T10:25:23.516Z,95236.53
2023-05-10T10:30:26.520Z,95231.19
2023-05-10T10:35:29.267Z,95227.56
2023-05-10T10:40:34.663Z,95214.34
2023-05-10T10:45:37.674Z,95215.31
2023-05-10T10:50:39.986Z,95211.47
2023-05-10T10:55:42.267Z,95210.72
2023-05-10T11:00:46.402Z,95230.88
2023-05-10T11:05:48.800Z,95207.63
2023-05-10T11:10:53.048Z,95212.72
2023-05-10T11:15:55.843Z,95213.69
2023-05-10T11:20:58.172Z,95223.31
2023-05-10T11:26:00.485Z,95219.94
2023-05-10T11:31:03.335Z,95222.56
2023-05-10T11:36:05.793Z,95239.78
2023-05-10T11:41:08.117Z,95245.34
2023-05-10T11:46:10.505Z,95260.00
2023-05-10T11:51:13.025Z,95272.53
2023-05-10T11:56:15.632Z,95282.38
2023-05-10T12:01:18.010Z,95284.16
2023-05-10T12:06:20.283Z,95282.00
2023-05-10T12:11:23.056Z,95309.06
2023-05-10T12:16:25.401Z,95319.03
2023-05-10T12:21:27.725Z,95330.56
2023-05-10T12:26:30.046Z,95346.09
2023-05-10T12:31:32.407Z,95353.72
2023-05-10T12:36:34.897Z,95379.28
2023-05-10T12:41:37.289Z,95377.69
2023-05-10T12:46:42.440Z,95379.81
2023-05-10T12:51:44.858Z,95376.25
2023-05-10T12:56:47.227Z,95377.97
2023-05-10T13:01:49.515Z,95379.81
2023-05-10T13:06:51.895Z,95384.78
2023-05-10T13:11:55.244Z,95398.63
2023-05-10T13:16:57.612Z,95384.47
2023-05-10T13:21:59.985Z,95387.03
2023-05-10T13:27:02.334Z,95393.16
2023-05-10T13:32:04.693Z,95386.25
2023-05-10T13:37:07.096Z,95385.66
2023-05-10T13:42:09.465Z,95396.81
2023-05-10T13:47:12.297Z,95391.66
2023-05-10T13:52:14.718Z,95389.56
2023-05-10T13:57:17.761Z,95396.09
2023-05-10T14:02:20.112Z,95390.59
2023-05-10T14:07:22.587Z,95380.69
2023-05-10T14:12:24.945Z,95384.09
2023-05-10T14:17:27.248Z,95384.31
2023-05-10T14:22:29.956Z,95380.38
2023-05-10T14:27:32.348Z,95376.00
2023-05-10T14:32:34.917Z,95383.59
2023-05-10T14:37:37.764Z,95386.00
2023-05-10T14:42:40.135Z,95398.72
2023-05-10T14:47:42.448Z,95392.94
2023-05-10T14:52:47.069Z,95396.75
2023-05-10T14:57:51.224Z,95397.94
2023-05-10T15:02:53.756Z,95403.19
2023-05-10T15:07:56.787Z,95404.72
2023-05-10T15:12:59.162Z,95414.69
2023-05-10T15:18:01.564Z,95414.69
2023-05-10T15:23:03.964Z,95420.44
2023-05-10T15:28:06.670Z,95423.06
2023-05-10T15:33:09.661Z,95422.19
2023-05-10T15:38:12.879Z,95425.47
2023-05-10T15:43:15.464Z,95435.13
2023-05-10T15:48:18.510Z,95433.00
2023-05-10T15:53:21.254Z,95442.00
2023-05-10T15:58:26.532Z,95448.53
2023-05-10T16:03:29.151Z,95449.91
2023-05-10T16:08:34.447Z,95453.72
2023-05-10T16:13:37.016Z,95452.97
2023-05-10T16:18:39.832Z,95456.53
2023-05-10T16:23:43.278Z,95455.19
2023-05-10T16:28:46.004Z,95455.13
2023-05-10T16:33:48.373Z,95464.66
2023-05-10T16:38:51.270Z,95471.66
2023-05-10T16:43:53.605Z,95470.34
2023-05-10T16:48:58.677Z,95480.63
2023-05-10T16:54:01.421Z,95480.41
2023-05-10T16:59:04.212Z,95484.53
2023-05-10T17:04:07.402Z,95488.13
2023-05-10T17:09:10.350Z,95493.25
2023-05-10T17:14:13.403Z,95499.28
2023-05-10T17:19:16.147Z,95509.50
2023-05-10T17:24:18.862Z,95517.84
2023-05-10T17:29:21.523Z,95517.41
2023-05-10T17:34:24.113Z,95515.59
2023-05-10T17:39:26.848Z,95521.50
2023-05-10T17:44:29.615Z,95523.94
2023-05-10T17:49:31.940Z,95531.47
2023-05-10T17:54:35.508Z,95526.34
2023-05-10T17:59:37.847Z,95530.38
2023-05-10T18:04:40.649Z,95527.72
2023-05-10T18:09:43.015Z,95529.03
2023-05-10T18:14:46.021Z,95533.88
2023-05-10T18:19:48.651Z,95537.16
2023-05-10T18:24:51.009Z,95537.69
2023-05-10T18:29:53.368Z,95536.06
2023-05-10T18:34:56.587Z,95529.91
2023-05-10T18:39:59.304Z,95534.47
2023-05-10T18:45:01.633Z,95532.59
2023-05-10T18:50:04.696Z,95538.53
2023-05-10T18:55:07.333Z,95536.63
2023-05-10T19:00:10.232Z,95534.75
2023-05-10T19:05:12.917Z,95543.63
2023-05-10T19:10:15.359Z,95547.38
2023-05-10T19:15:19.410Z,95551.16
2023-05-10T19:20:24.165Z,95557.06
2023-05-10T19:25:29.743Z,95553.59
2023-05-10T19:30:32.273Z,95556.50
2023-05-10T19:35:34.986Z,95565.91
2023-05-10T19:40:37.936Z,95564.59
2023-05-10T19:45:40.719Z,95561.88
2023-05-10T19:50:43.462Z,95558.94
2023-05-10T19:55:45.992Z,95561.34
2023-05-10T20:00:48.936Z,95562.44
2023-05-10T20:05:51.340Z,95555.97
2023-05-10T20:10:53.709Z,95561.63
2023-05-10T20:15:56.002Z,95568.59
2023-05-10T20:20:58.323Z,95571.03
2023-05-10T20:26:00.638Z,95568.34
2023-05-10T20:31:03.368Z,95565.63
2023-05-10T20:36:05.715Z,95564.31
2023-05-10T20:41:08.006Z,95568.31
2023-05-10T20:46:10.363Z,95566.72
2023-05-10T20:51:12.986Z,95558.13
2023-05-10T20:56:15.406Z,95558.94
2023-05-10T21:01:17.786Z,95553.81
2023-05-10T21:06:20.239Z,95550.91
2023-05-10T21:11:22.674Z,95543.94
2023-05-10T21:16:25.221Z,95544.72
2023-05-10T21:21:27.511Z,95539.66
2023-05-10T21:26:29.896Z,95534.28
2023-05-10T21:31:32.246Z,95531.06
2023-05-10T21:36:34.673Z,95538.88
2023-05-10T21:41:37.233Z,95531.06
2023-05-10T21:46:39.638Z,95521.16
2023-05-10T21:51:42.227Z,95521.16
2023-05-10T21:56:44.929Z,95531.06
2023-05-10T22:01:47.395Z,95524.38
2023-05-10T22:06:50.104Z,95521.69
2023-05-10T22:11:52.446Z,95518.75
2023-05-10T22:16:54.818Z,95518.75
2023-05-10T22:21:57.200Z,95523.28
2023-05-10T22:26:59.620Z,95531.59
2023-05-10T22:32:05.491Z,95528.13
2023-05-10T22:37:07.758Z,95525.72
2023-05-10T22:42:10.358Z,95522.22
2023-05-10T22:47:12.636Z,95522.75
2023-05-10T22:52:14.931Z,95516.34
2023-05-10T22:57:17.287Z,95509.38
2023-05-10T23:02:19.609Z,95515.00
2023-05-10T23:07:22.667Z,95518.47
2023-05-10T23:12:25.175Z,95509.38
2023-05-10T23:17:27.487Z,95517.94
2023-05-10T23:22:29.821Z,95521.94
2023-05-10T23:27:32.145Z,95518.47
2023-05-10T23:32:34.538Z,95519.00
2023-05-10T23:37:37.148Z,95527.28
2023-05-10T23:42:39.435Z,95527.84
2023-05-10T23:47:41.908Z,95528.09
2023-05-10T23:52:44.200Z,95521.66
2023-05-10T23:57:46.556Z,95516.84
